Time;durP1;ratioP1;P1;durP2;ratioP2;P2;SDS_P1;SDS_P2;PMS_P1;PMS_P2;Temp;Humidity;BMP_temperature;BMP_pressure;BME280_temperature;BME280_humidity;BME280_pressure;Samples;Min_cycle;Max_cycle;Signal;HPM_P1;HPM_P2
2023/02/14 00:01:43;;;;;;;;;;;;;;;2.95;84.65;100789.34;5062181;28;19916;-73
2023/02/14 00:04:08;;;;;;;;;;;;;;;2.90;84.59;100789.00;5067153;28;20414;-74
2023/02/14 00:06:35;;;;;;;;;;;;;;;2.85;84.77;100796.53;5058749;28;19931;-74
2023/02/14 00:09:01;;;;;;;;;;;;;;;2.81;84.52;100796.97;5066964;28;19920;-73
2023/02/14 00:11:26;;;;;;;;;;;;;;;2.81;84.69;100797.81;5064079;28;20262;-72
2023/02/14 00:16:35;;;;;;;;;;;;;;;2.58;85.52;100783.41;5065437;28;19936;-74
2023/02/14 00:19:03;;;;;;;;;;;;;;;2.70;85.57;100787.50;5066283;28;19921;-73
2023/02/14 00:21:29;;;;;;;;;;;;;;;2.72;85.65;100793.44;5063697;28;20571;-73
2023/02/14 00:23:54;;;;;;;;;;;;;;;2.73;86.16;100787.19;5063948;28;19917;-73
2023/02/14 00:26:20;;;;;;;;;;;;;;;2.89;85.83;100784.69;5066247;28;20441;-74
2023/02/14 00:28:45;;;;;;;;;;;;;;;2.87;85.52;100789.28;5056279;28;20002;-73
2023/02/14 00:31:10;;;;;;;;;;;;;;;1.94;86.56;100799.34;5059501;28;22085;-74
2023/02/14 00:33:36;;;;;;;;;;;;;;;2.66;87.41;100795.84;5050485;28;19917;-74
2023/02/14 00:36:02;;;;;;;;;;;;;;;2.79;86.21;100796.31;5051749;28;20987;-74
2023/02/14 00:38:28;;;;;;;;;;;;;;;2.73;86.30;100797.72;5050165;28;19928;-74
2023/02/14 00:40:53;;;;;;;;;;;;;;;2.67;86.47;100797.50;5053082;28;20380;-72
2023/02/14 00:43:18;;;;;;;;;;;;;;;2.63;86.48;100801.41;5066153;28;20350;-73
2023/02/14 00:45:43;;;;;;;;;;;;;;;2.61;86.82;100791.03;5052149;28;20324;-74
2023/02/14 00:48:09;;;;;;;;;;;;;;;2.56;86.87;100792.44;5052796;28;19928;-73
2023/02/14 00:50:34;;;;;;;;;;;;;;;2.70;86.12;100787.50;5066238;28;19925;-74
2023/02/14 00:52:59;;;;;;;;;;;;;;;2.70;86.02;100792.78;5056144;28;19968;-73
2023/02/14 00:55:24;;;;;;;;;;;;;;;2.71;85.63;100794.41;5067140;28;20450;-74
2023/02/14 00:57:49;;;;;;;;;;;;;;;2.73;85.33;100802.19;5055782;28;20391;-75
2023/02/14 01:00:15;;;;;;;;;;;;;;;2.73;85.24;100800.34;5055528;28;20591;-73
2023/02/14 01:02:40;;;;;;;;;;;;;;;2.65;85.07;100795.00;5058831;28;19928;-72
2023/02/14 01:05:05;;;;;;;;;;;;;;;2.56;85.36;100795.91;5063912;28;20343;-72
2023/02/14 01:07:31;;;;;;;;;;;;;;;2.53;85.20;100796.22;5063694;28;19943;-73
2023/02/14 01:09:56;;;;;;;;;;;;;;;2.59;85.38;100794.78;5064992;28;20599;-72
2023/02/14 01:12:21;;;;;;;;;;;;;;;2.56;85.49;100795.06;5067902;28;19924;-72
2023/02/14 01:14:46;;;;;;;;;;;;;;;2.52;85.37;100794.56;5061226;28;19951;-72
2023/02/14 01:17:12;;;;;;;;;;;;;;;2.57;85.09;100799.38;5059314;28;19920;-72
2023/02/14 01:19:37;;;;;;;;;;;;;;;2.50;84.80;100799.16;5064087;28;19935;-74
2023/02/14 01:22:02;;;;;;;;;;;;;;;2.47;84.80;100796.00;5061981;28;20041;-72
2023/02/14 01:24:28;;;;;;;;;;;;;;;2.57;84.28;100802.84;5073228;28;19994;-72
2023/02/14 01:26:53;;;;;;;;;;;;;;;2.29;84.23;100803.88;5079968;28;19928;-74
2023/02/14 01:29:18;;;;;;;;;;;;;;;2.27;85.04;100800.56;5066244;28;19920;-75
2023/02/14 01:31:43;;;;;;;;;;;;;;;2.60;83.70;100804.38;5072521;28;20033;-75
2023/02/14 01:34:09;;;;;;;;;;;;;;;2.53;83.88;100796.22;5065639;28;19966;-75
2023/02/14 01:36:37;;;;;;;;;;;;;;;2.53;83.32;100804.13;5066113;28;19927;-74
2023/02/14 01:39:04;;;;;;;;;;;;;;;2.44;83.56;100797.13;5061646;28;19920;-73
2023/02/14 01:41:31;;;;;;;;;;;;;;;2.45;83.56;100793.50;5060088;28;19936;-74
2023/02/14 01:44:01;;;;;;;;;;;;;;;2.54;83.59;100789.97;5075818;28;19931;-74
2023/02/14 01:46:27;;;;;;;;;;;;;;;2.52;83.11;100793.72;5061119;28;20549;-73
2023/02/14 01:49:10;;;;;;;;;;;;;;;1.34;83.82;100805.03;5073544;28;19920;-73
2023/02/14 01:51:37;;;;;;;;;;;;;;;1.57;86.83;100802.94;5056986;28;19928;-74
2023/02/14 01:54:04;;;;;;;;;;;;;;;2.16;84.47;100798.13;5060120;28;19916;-74
2023/02/14 01:56:34;;;;;;;;;;;;;;;2.26;83.71;100798.88;5064253;28;19920;-76
2023/02/14 01:59:01;;;;;;;;;;;;;;;2.38;83.73;100792.41;5068949;28;20046;-75
2023/02/14 02:01:27;;;;;;;;;;;;;;;2.43;83.06;100790.16;5065715;28;19928;-74
2023/02/14 02:03:54;;;;;;;;;;;;;;;2.29;83.17;100793.31;5068506;28;19973;-75
2023/02/14 02:06:28;;;;;;;;;;;;;;;2.33;83.13;100785.94;5066539;28;19924;-73
2023/02/14 02:09:22;;;;;;;;;;;;;;;2.32;82.64;100786.91;5059465;28;19920;-75
2023/02/14 02:11:48;;;;;;;;;;;;;;;2.34;82.41;100796.31;5064174;28;20377;-75
2023/02/14 02:14:17;;;;;;;;;;;;;;;2.25;82.46;100791.94;5067539;28;19938;-74
2023/02/14 02:16:47;;;;;;;;;;;;;;;2.20;82.63;100789.78;5064700;28;19921;-74
2023/02/14 02:19:15;;;;;;;;;;;;;;;1.16;84.44;100791.78;5066896;28;19916;-72
2023/02/14 02:21:41;;;;;;;;;;;;;;;2.00;84.06;100797.91;5069305;28;19920;-72
2023/02/14 02:24:11;;;;;;;;;;;;;;;2.12;83.00;100783.56;5065224;28;19958;-72
2023/02/14 02:26:56;;;;;;;;;;;;;;;2.06;83.15;100782.34;5065196;28;19983;-72
2023/02/14 02:29:39;;;;;;;;;;;;;;;1.96;83.33;100786.84;5065469;28;20012;-73
2023/02/14 02:32:28;;;;;;;;;;;;;;;1.86;83.89;100779.94;5063421;28;19931;-74
2023/02/14 02:35:04;;;;;;;;;;;;;;;1.97;83.86;100777.97;5066865;28;20075;-74
2023/02/14 02:37:29;;;;;;;;;;;;;;;1.95;83.70;100763.28;5065507;28;19916;-74
2023/02/14 02:40:13;;;;;;;;;;;;;;;1.87;83.68;100771.09;5067544;28;19928;-74
2023/02/14 02:42:38;;;;;;;;;;;;;;;1.80;84.71;100772.63;5061804;28;19977;-74
2023/02/14 02:45:19;;;;;;;;;;;;;;;1.87;84.05;100774.56;5065508;28;19924;-74
2023/02/14 02:47:52;;;;;;;;;;;;;;;1.90;84.17;100768.16;5066525;28;19920;-76
2023/02/14 02:53:07;;;;;;;;;;;;;;;1.81;84.26;100766.41;5059442;28;19985;-75
2023/02/14 02:58:24;;;;;;;;;;;;;;;1.84;83.97;100764.31;5061659;28;19971;-75
2023/02/14 03:00:51;;;;;;;;;;;;;;;1.72;84.67;100764.63;5065448;28;19943;-76
2023/02/14 03:06:03;;;;;;;;;;;;;;;1.78;84.61;100758.78;5060534;28;19940;-75
2023/02/14 03:08:28;;;;;;;;;;;;;;;1.67;84.99;100764.22;5061590;28;19925;-75
2023/02/14 03:10:53;;;;;;;;;;;;;;;1.76;84.90;100758.94;5060971;28;19972;-76
2023/02/14 03:13:18;;;;;;;;;;;;;;;1.78;84.94;100757.00;5060085;28;19925;-76
2023/02/14 03:15:49;;;;;;;;;;;;;;;1.76;84.92;100758.94;5055525;28;20614;-76
2023/02/14 03:18:17;;;;;;;;;;;;;;;1.71;85.16;100755.06;5058317;28;19924;-75
2023/02/14 03:20:54;;;;;;;;;;;;;;;1.67;85.01;100748.44;5059002;28;20644;-75
2023/02/14 03:23:21;;;;;;;;;;;;;;;1.68;85.04;100748.31;5060879;28;19998;-73
2023/02/14 03:25:46;;;;;;;;;;;;;;;1.64;85.06;100749.56;5061183;28;19920;-74
2023/02/14 03:28:17;;;;;;;;;;;;;;;1.70;84.88;100742.91;5065975;28;19920;-73
2023/02/14 03:30:57;;;;;;;;;;;;;;;1.64;84.85;100746.94;5062794;28;19916;-73
2023/02/14 03:33:25;;;;;;;;;;;;;;;1.58;85.10;100750.16;5058661;28;20455;-72
2023/02/14 03:36:00;;;;;;;;;;;;;;;1.56;85.36;100741.56;5062871;28;19920;-72
2023/02/14 03:38:28;;;;;;;;;;;;;;;1.50;85.41;100740.34;5061630;28;20356;-73
2023/02/14 03:40:57;;;;;;;;;;;;;;;1.57;85.36;100740.59;5059926;28;20027;-73
2023/02/14 03:43:42;;;;;;;;;;;;;;;1.70;84.64;100740.28;5058543;28;20007;-75
2023/02/14 03:46:11;;;;;;;;;;;;;;;1.63;84.79;100744.44;5060663;28;19925;-74
2023/02/14 03:48:38;;;;;;;;;;;;;;;1.61;84.73;100744.59;5055582;28;19928;-76
2023/02/14 03:51:04;;;;;;;;;;;;;;;1.59;84.38;100740.47;5057770;28;19935;-74
2023/02/14 03:53:33;;;;;;;;;;;;;;;1.53;84.64;100731.31;5054835;28;19938;-75
2023/02/14 03:56:11;;;;;;;;;;;;;;;1.54;84.43;100733.00;5061338;28;20343;-74
2023/02/14 03:58:38;;;;;;;;;;;;;;;1.47;84.63;100738.00;5062806;28;20020;-75
2023/02/14 04:01:15;;;;;;;;;;;;;;;1.60;84.28;100739.47;5060656;28;19920;-73
2023/02/14 04:03:41;;;;;;;;;;;;;;;1.64;83.82;100740.84;5061110;28;19920;-73
2023/02/14 04:06:06;;;;;;;;;;;;;;;1.71;83.50;100740.13;5058933;28;19978;-74
2023/02/14 04:08:32;;;;;;;;;;;;;;;1.73;82.98;100730.28;5053640;28;19928;-74
2023/02/14 04:10:59;;;;;;;;;;;;;;;1.67;83.22;100732.66;5067058;28;20335;-73
2023/02/14 04:13:24;;;;;;;;;;;;;;;1.47;83.88;100732.75;5063796;28;20016;-75
2023/02/14 04:15:49;;;;;;;;;;;;;;;1.42;83.89;100728.91;5064320;28;20007;-74
2023/02/14 04:20:58;;;;;;;;;;;;;;;1.33;84.48;100730.56;5065542;28;19962;-74
2023/02/14 04:23:23;;;;;;;;;;;;;;;1.49;83.46;100729.94;5068322;28;19920;-74
2023/02/14 04:25:49;;;;;;;;;;;;;;;1.47;83.52;100731.91;5060837;28;19925;-74
2023/02/14 04:28:14;;;;;;;;;;;;;;;1.58;83.53;100733.53;5061480;28;19935;-74
2023/02/14 04:30:39;;;;;;;;;;;;;;;1.51;83.50;100734.09;5065306;28;19920;-74
2023/02/14 04:33:06;;;;;;;;;;;;;;;1.48;83.28;100733.56;5066384;28;19927;-76
2023/02/14 04:35:32;;;;;;;;;;;;;;;1.52;83.04;100730.50;5066443;28;20319;-76
2023/02/14 04:37:57;;;;;;;;;;;;;;;1.49;83.32;100729.94;5062154;28;19974;-75
2023/02/14 04:40:22;;;;;;;;;;;;;;;1.51;83.21;100734.09;5066038;28;20285;-76
2023/02/14 04:42:47;;;;;;;;;;;;;;;1.51;83.26;100726.22;5059306;28;20293;-73
2023/02/14 04:45:13;;;;;;;;;;;;;;;1.58;83.15;100728.25;5046331;28;20007;-73
2023/02/14 04:47:38;;;;;;;;;;;;;;;1.49;83.38;100729.94;5065213;28;19974;-73
2023/02/14 04:50:04;;;;;;;;;;;;;;;1.37;83.52;100726.69;5063972;28;19962;-74
2023/02/14 04:52:29;;;;;;;;;;;;;;;1.44;83.46;100730.38;5064721;28;19932;-74
2023/02/14 04:54:54;;;;;;;;;;;;;;;1.32;83.82;100728.91;5065462;28;19932;-73
2023/02/14 04:57:19;;;;;;;;;;;;;;;1.28;83.91;100722.28;5068946;28;19921;-74
2023/02/14 04:59:45;;;;;;;;;;;;;;;1.20;84.06;100723.97;5060710;28;20909;-72
2023/02/14 05:02:10;;;;;;;;;;;;;;;1.21;83.58;100721.19;5065696;28;19916;-75
2023/02/14 05:04:35;;;;;;;;;;;;;;;1.15;83.87;100721.78;5062078;28;19924;-74
2023/02/14 05:07:00;;;;;;;;;;;;;;;1.21;83.97;100721.19;5066820;28;19927;-74
2023/02/14 05:09:26;;;;;;;;;;;;;;;1.17;84.18;100721.63;5063250;28;19926;-72
2023/02/14 05:11:51;;;;;;;;;;;;;;;1.18;83.85;100731.19;5064457;28;20161;-75
2023/02/14 05:14:16;;;;;;;;;;;;;;;1.14;83.88;100720.09;5063005;28;19995;-71
2023/02/14 05:16:42;;;;;;;;;;;;;;;1.14;83.65;100725.34;5060819;28;19916;-73
2023/02/14 05:19:07;;;;;;;;;;;;;;;1.17;83.66;100725.09;5062981;28;19974;-71
2023/02/14 05:21:32;;;;;;;;;;;;;;;1.29;83.63;100726.56;5057403;28;19924;-72
2023/02/14 05:23:58;;;;;;;;;;;;;;;1.31;83.07;100718.56;5057091;28;20301;-72
2023/02/14 05:26:23;;;;;;;;;;;;;;;1.37;82.44;100725.84;5061501;28;19970;-71
2023/02/14 05:28:48;;;;;;;;;;;;;;;1.24;82.80;100725.34;5061140;28;19924;-72
2023/02/14 05:31:14;;;;;;;;;;;;;;;1.19;82.81;100717.03;5064553;28;20357;-73
2023/02/14 05:33:39;;;;;;;;;;;;;;;1.24;82.54;100722.72;5062763;28;19928;-71
2023/02/14 05:36:04;;;;;;;;;;;;;;;1.24;82.27;100715.66;5064892;28;19920;-71
2023/02/14 05:38:31;;;;;;;;;;;;;;;1.10;83.09;100720.53;5063654;28;19928;-73
2023/02/14 05:40:56;;;;;;;;;;;;;;;1.21;82.54;100718.56;5063038;28;19951;-73
2023/02/14 05:43:22;;;;;;;;;;;;;;;1.16;82.82;100726.03;5067941;28;19971;-73
2023/02/14 05:45:47;;;;;;;;;;;;;;;1.17;82.96;100722.47;5060754;28;20018;-73
2023/02/14 05:48:12;;;;;;;;;;;;;;;1.13;82.64;100728.97;5069547;28;19928;-71
2023/02/14 05:50:37;;;;;;;;;;;;;;;1.08;82.81;100720.69;5068372;28;19948;-71
2023/02/14 05:53:03;;;;;;;;;;;;;;;1.08;82.89;100714.56;5068677;28;20444;-71
2023/02/14 05:55:29;;;;;;;;;;;;;;;1.11;82.62;100712.50;5062176;28;20581;-71
2023/02/14 05:57:54;;;;;;;;;;;;;;;1.03;82.45;100711.53;5068817;28;19924;-73
2023/02/14 06:00:20;;;;;;;;;;;;;;;1.07;82.91;100718.19;5068188;28;20376;-71
2023/02/14 06:02:45;;;;;;;;;;;;;;;1.10;82.37;100723.16;5065302;28;19975;-71
2023/02/14 06:05:10;;;;;;;;;;;;;;;1.10;82.61;100718.72;5063444;28;19934;-71
2023/02/14 06:07:35;;;;;;;;;;;;;;;1.06;82.28;100727.03;5062426;28;19921;-71
2023/02/14 06:10:01;;;;;;;;;;;;;;;1.08;82.43;100723.31;5067159;28;20065;-71
2023/02/14 06:12:26;;;;;;;;;;;;;;;0.99;82.35;100720.69;5062584;28;19932;-71
2023/02/14 06:14:51;;;;;;;;;;;;;;;0.98;82.37;100717.25;5062574;28;20415;-72
2023/02/14 06:17:16;;;;;;;;;;;;;;;0.97;82.61;100727.88;5061987;28;20335;-71
2023/02/14 06:19:42;;;;;;;;;;;;;;;0.97;82.68;100722.63;5066018;28;20717;-73
2023/02/14 06:22:07;;;;;;;;;;;;;;;1.02;82.54;100721.25;5066679;28;19924;-71
2023/02/14 06:24:33;;;;;;;;;;;;;;;1.05;82.20;100728.84;5061422;28;20016;-71
2023/02/14 06:26:58;;;;;;;;;;;;;;;0.97;82.20;100727.88;5062381;28;19959;-72
2023/02/14 06:29:23;;;;;;;;;;;;;;;0.97;82.58;100725.25;5065874;28;19927;-72
2023/02/14 06:31:49;;;;;;;;;;;;;;;0.93;82.50;100726.50;5067551;28;20292;-72
2023/02/14 06:34:14;;;;;;;;;;;;;;;0.91;82.82;100737.19;5060165;28;19927;-75
2023/02/14 06:36:39;;;;;;;;;;;;;;;0.90;82.76;100735.50;5065870;28;20448;-72
2023/02/14 06:39:04;;;;;;;;;;;;;;;0.92;82.83;100733.56;5068612;28;19920;-72
2023/02/14 06:41:29;;;;;;;;;;;;;;;1.12;81.95;100740.44;5057173;28;19929;-71
2023/02/14 06:43:55;;;;;;;;;;;;;;;1.01;82.56;100729.25;5062921;28;19935;-72
2023/02/14 06:46:20;;;;;;;;;;;;;;;1.01;82.36;100734.50;5053851;28;19920;-72
2023/02/14 06:48:45;;;;;;;;;;;;;;;0.93;82.14;100737.03;5054102;28;19924;-72
2023/02/14 06:51:10;;;;;;;;;;;;;;;1.00;82.68;100732.88;5052528;28;19929;-73
2023/02/14 06:53:36;;;;;;;;;;;;;;;1.03;82.21;100732.56;5050250;28;19924;-73
2023/02/14 06:56:01;;;;;;;;;;;;;;;1.00;82.47;100733.72;5053147;28;21529;-72
2023/02/14 06:58:27;;;;;;;;;;;;;;;0.97;82.75;100731.34;5054840;28;19931;-73
2023/02/14 07:00:56;;;;;;;;;;;;;;;0.96;82.53;100734.13;5057642;28;19925;-71
2023/02/14 07:03:21;;;;;;;;;;;;;;;1.10;82.55;100734.50;5061348;28;19997;-72
2023/02/14 07:05:46;;;;;;;;;;;;;;;0.97;82.46;100733.97;5058681;28;20408;-72
2023/02/14 07:08:12;;;;;;;;;;;;;;;1.13;81.88;100731.59;5051825;28;20477;-72
2023/02/14 07:10:37;;;;;;;;;;;;;;;1.14;81.90;100735.88;5061341;28;20395;-72
2023/02/14 07:13:02;;;;;;;;;;;;;;;0.76;81.44;100735.94;5062495;28;19916;-72
2023/02/14 07:15:28;;;;;;;;;;;;;;;0.96;82.97;100742.00;5065004;28;19917;-72
2023/02/14 07:17:53;;;;;;;;;;;;;;;1.10;81.92;100739.75;5063183;28;20284;-73
2023/02/14 07:20:18;;;;;;;;;;;;;;;1.03;82.19;100732.56;5064713;28;20300;-73
2023/02/14 07:22:44;;;;;;;;;;;;;;;1.08;82.07;100733.81;5068003;28;19925;-72
2023/02/14 07:25:09;;;;;;;;;;;;;;;1.17;81.38;100737.41;5062823;28;19936;-72
2023/02/14 07:27:35;;;;;;;;;;;;;;;1.15;81.76;100736.72;5061266;28;20413;-73
2023/02/14 07:30:00;;;;;;;;;;;;;;;1.17;81.79;100740.03;5066661;28;20388;-73
2023/02/14 07:32:25;;;;;;;;;;;;;;;1.19;81.67;100738.09;5066632;28;20019;-71
2023/02/14 07:34:50;;;;;;;;;;;;;;;1.12;81.62;100729.09;5066649;28;19970;-72
2023/02/14 07:37:16;;;;;;;;;;;;;;;1.16;81.29;100731.31;5062215;28;19924;-73
2023/02/14 07:39:42;;;;;;;;;;;;;;;1.14;81.65;100735.03;5060040;28;19927;-73
2023/02/14 07:42:07;;;;;;;;;;;;;;;1.10;81.75;100734.50;5061787;28;20011;-72
2023/02/14 07:44:33;;;;;;;;;;;;;;;1.17;81.98;100732.13;5067072;28;19924;-72
2023/02/14 07:46:58;;;;;;;;;;;;;;;1.21;81.66;100723.81;5068657;28;19917;-72
2023/02/14 07:49:23;;;;;;;;;;;;;;;1.23;81.97;100726.31;5067529;28;19920;-72
2023/02/14 07:51:48;;;;;;;;;;;;;;;1.23;82.18;100727.13;5070613;28;20357;-72
2023/02/14 07:54:14;;;;;;;;;;;;;;;1.24;81.93;100720.91;5068389;28;20392;-72
2023/02/14 07:56:39;;;;;;;;;;;;;;;1.19;82.39;100717.03;5063699;28;20037;-72
2023/02/14 07:59:04;;;;;;;;;;;;;;;1.25;82.66;100719.09;5054135;28;19921;-73
2023/02/14 08:01:29;;;;;;;;;;;;;;;1.30;82.21;100727.41;5061898;28;19936;-73
2023/02/14 08:03:55;;;;;;;;;;;;;;;1.31;82.08;100729.06;5065812;28;20405;-72
2023/02/14 08:06:20;;;;;;;;;;;;;;;1.24;82.69;100720.91;5067787;28;19974;-73
2023/02/14 08:08:46;;;;;;;;;;;;;;;0.85;83.17;100729.84;5065199;28;19928;-72
2023/02/14 08:11:11;;;;;;;;;;;;;;;0.26;86.66;100729.16;5063373;28;19927;-73
2023/02/14 08:13:56;;;;;;;;;;;;;;;0.74;85.96;100733.44;5066211;28;19954;-72
2023/02/14 08:16:22;;;;;;;;;;;;;;;0.41;86.89;100723.38;5064661;28;19928;-72
2023/02/14 08:18:47;;;;;;;;;;;;;;;-0.31;90.77;100742.97;5063607;28;19966;-72
2023/02/14 08:21:12;;;;;;;;;;;;;;;-0.50;93.03;100743.69;5066481;28;19927;-72
2023/02/14 08:23:37;;;;;;;;;;;;;;;-0.59;94.00;100736.63;5067131;28;19924;-72
2023/02/14 08:26:03;;;;;;;;;;;;;;;-0.36;95.19;100745.16;5067716;28;19924;-72
2023/02/14 08:28:31;;;;;;;;;;;;;;;-0.47;94.35;100738.22;5065330;28;20522;-71
2023/02/14 08:30:57;;;;;;;;;;;;;;;-0.25;94.61;100734.56;5065329;28;19932;-71
2023/02/14 08:33:22;;;;;;;;;;;;;;;-0.04;92.82;100735.31;5068748;28;19921;-72
2023/02/14 08:35:47;;;;;;;;;;;;;;;1.01;88.58;100737.13;5067105;28;20011;-72
2023/02/14 08:38:13;;;;;;;;;;;;;;;1.25;86.27;100740.13;5063740;28;19924;-72
2023/02/14 08:40:38;;;;;;;;;;;;;;;1.34;85.27;100734.84;5068232;28;19916;-73
2023/02/14 08:43:07;;;;;;;;;;;;;;;1.47;85.03;100726.63;5064990;28;19921;-74
2023/02/14 08:45:32;;;;;;;;;;;;;;;1.54;84.90;100722.47;5065291;28;19917;-73
2023/02/14 08:48:06;;;;;;;;;;;;;;;1.57;84.35;100721.34;5067401;28;19928;-73
2023/02/14 08:50:31;;;;;;;;;;;;;;;1.61;84.53;100722.72;5063090;28;19942;-71
2023/02/14 08:52:56;;;;;;;;;;;;;;;1.41;85.29;100719.34;5068814;28;20381;-72
2023/02/14 08:55:21;;;;;;;;;;;;;;;0.84;88.36;100725.56;5064925;28;19920;-72
2023/02/14 08:57:48;;;;;;;;;;;;;;;0.44;91.46;100728.31;5066391;28;19924;-73
2023/02/14 09:00:13;;;;;;;;;;;;;;;0.49;93.00;100722.66;5066156;28;19920;-73
2023/02/14 09:02:39;;;;;;;;;;;;;;;0.60;92.51;100719.91;5067324;28;20011;-71
2023/02/14 09:05:05;;;;;;;;;;;;;;;0.67;92.38;100721.00;5059665;28;20024;-72
2023/02/14 09:07:30;;;;;;;;;;;;;;;0.48;94.75;100728.91;5064742;28;19931;-73
2023/02/14 09:09:55;;;;;;;;;;;;;;;1.03;90.59;100722.88;5057942;28;19950;-73
2023/02/14 09:12:20;;;;;;;;;;;;;;;1.50;87.22;100711.41;5062882;28;19935;-72
2023/02/14 09:14:46;;;;;;;;;;;;;;;0.99;91.53;100710.16;5067265;28;19932;-72
2023/02/14 09:17:11;;;;;;;;;;;;;;;0.84;92.48;100717.66;5056626;28;19921;-71
2023/02/14 09:19:37;;;;;;;;;;;;;;;1.58;88.64;100717.72;5064477;28;19916;-73
2023/02/14 09:22:04;;;;;;;;;;;;;;;1.08;90.75;100709.31;5068911;28;19916;-72
2023/02/14 09:24:29;;;;;;;;;;;;;;;0.88;94.23;100713.78;5063276;28;19924;-71
2023/02/14 09:26:56;;;;;;;;;;;;;;;1.23;92.75;100710.53;5069509;28;20301;-73
2023/02/14 09:29:22;;;;;;;;;;;;;;;1.57;89.66;100702.94;5068818;28;19923;-72
2023/02/14 09:31:47;;;;;;;;;;;;;;;1.93;85.73;100691.50;5062931;28;19916;-72
2023/02/14 09:34:12;;;;;;;;;;;;;;;1.34;90.12;100703.28;5072378;28;20007;-72
2023/02/14 09:36:37;;;;;;;;;;;;;;;0.97;94.91;100709.47;5069002;28;19977;-72
2023/02/14 09:39:03;;;;;;;;;;;;;;;1.09;95.48;100703.91;5061395;28;19924;-72
2023/02/14 09:41:28;;;;;;;;;;;;;;;1.10;96.95;100702.97;5063707;28;19924;-72
2023/02/14 09:44:05;;;;;;;;;;;;;;;1.18;97.95;100704.88;5066104;28;19920;-73
2023/02/14 09:46:33;;;;;;;;;;;;;;;1.26;98.81;100697.94;5067859;28;19969;-71
2023/02/14 09:48:58;;;;;;;;;;;;;;;1.50;96.49;100702.69;5062748;28;20330;-71
2023/02/14 09:51:26;;;;;;;;;;;;;;;1.52;95.03;100698.09;5069544;28;20015;-72
2023/02/14 09:53:59;;;;;;;;;;;;;;;1.99;89.63;100696.19;5069434;28;19916;-72
2023/02/14 09:56:33;;;;;;;;;;;;;;;1.78;93.21;100703.50;5066511;28;19967;-72
2023/02/14 09:59:03;;;;;;;;;;;;;;;2.01;89.90;100700.31;5071365;28;19916;-72
2023/02/14 10:01:35;;;;;;;;;;;;;;;2.14;88.43;100698.16;5071055;28;19920;-72
2023/02/14 10:04:00;;;;;;;;;;;;;;;2.37;86.69;100689.81;5070581;28;20273;-72
2023/02/14 10:06:25;;;;;;;;;;;;;;;2.14;87.78;100695.53;5062857;28;19928;-72
2023/02/14 10:09:14;;;;;;;;;;;;;;;2.23;87.88;100705.16;5069818;28;19920;-72
2023/02/14 10:11:42;;;;;;;;;;;;;;;2.41;87.26;100691.16;5044138;28;19917;-73
2023/02/14 10:14:10;;;;;;;;;;;;;;;2.44;86.94;100696.16;5066671;28;19981;-72
2023/02/14 10:16:36;;;;;;;;;;;;;;;2.29;89.91;100686.13;5062537;28;19924;-73
2023/02/14 10:19:03;;;;;;;;;;;;;;;2.36;89.45;100678.44;5061161;28;20305;-72
2023/02/14 10:21:32;;;;;;;;;;;;;;;2.13;93.70;100682.50;5064323;28;20051;-73
2023/02/14 10:24:23;;;;;;;;;;;;;;;2.37;89.73;100677.47;5071060;28;20369;-73
2023/02/14 10:26:49;;;;;;;;;;;;;;;2.48;89.70;100677.25;5063687;28;20398;-73
2023/02/14 10:29:16;;;;;;;;;;;;;;;2.55;89.07;100680.94;5068114;28;20003;-73
2023/02/14 10:32:00;;;;;;;;;;;;;;;2.39;92.41;100678.16;5070620;28;19947;-72
2023/02/14 10:34:44;;;;;;;;;;;;;;;2.40;93.79;100681.63;5069580;28;19921;-72
2023/02/14 10:37:09;;;;;;;;;;;;;;;2.46;92.39;100676.56;5067210;28;20391;-73
2023/02/14 10:39:38;;;;;;;;;;;;;;;2.62;91.06;100667.97;5064740;28;20011;-73
2023/02/14 10:42:03;;;;;;;;;;;;;;;2.73;89.76;100670.38;5063342;28;19917;-72
2023/02/14 10:44:47;;;;;;;;;;;;;;;2.77;89.27;100671.72;5069822;28;19997;-72
2023/02/14 10:47:21;;;;;;;;;;;;;;;2.72;90.83;100669.53;5059589;28;19924;-73
2023/02/14 10:50:03;;;;;;;;;;;;;;;2.67;93.02;100677.06;5064460;28;19924;-73
2023/02/14 10:52:34;;;;;;;;;;;;;;;2.74;92.61;100670.22;5066782;28;19924;-71
2023/02/14 10:55:07;;;;;;;;;;;;;;;2.60;94.82;100668.09;5069922;28;20378;-73
2023/02/14 10:57:39;;;;;;;;;;;;;;;2.83;93.79;100665.81;5067806;28;19924;-72
2023/02/14 11:00:06;;;;;;;;;;;;;;;2.84;94.37;100662.22;5064080;28;19928;-71
2023/02/14 11:02:33;;;;;;;;;;;;;;;2.87;94.69;100667.16;5068609;28;19920;-71
2023/02/14 11:04:59;;;;;;;;;;;;;;;3.02;92.71;100657.69;5065920;28;20073;-73
2023/02/14 11:07:25;;;;;;;;;;;;;;;3.23;92.48;100644.97;5064821;28;20445;-72
2023/02/14 11:09:50;;;;;;;;;;;;;;;3.37;91.16;100644.38;5067830;28;19936;-72
2023/02/14 11:12:36;;;;;;;;;;;;;;;3.43;90.76;100648.22;5064383;28;19924;-73
2023/02/14 11:15:10;;;;;;;;;;;;;;;3.46;91.03;100647.88;5069381;28;19928;-72
2023/02/14 11:17:36;;;;;;;;;;;;;;;3.66;90.87;100638.72;5068340;28;19952;-71
2023/02/14 11:20:08;;;;;;;;;;;;;;;3.59;91.33;100642.97;5070074;28;19927;-72
2023/02/14 11:22:34;;;;;;;;;;;;;;;3.37;93.38;100641.72;5065151;28;20035;-72
2023/02/14 11:25:04;;;;;;;;;;;;;;;3.27;94.46;100645.47;5070239;28;20015;-71
2023/02/14 11:27:29;;;;;;;;;;;;;;;3.60;93.31;100636.72;5066665;28;20262;-71
2023/02/14 11:29:54;;;;;;;;;;;;;;;4.14;91.14;100630.06;5069169;28;19923;-71
2023/02/14 11:32:27;;;;;;;;;;;;;;;4.15;90.18;100626.44;5065896;28;19970;-71
2023/02/14 11:34:58;;;;;;;;;;;;;;;4.18;90.19;100629.59;5074011;28;19928;-72
2023/02/14 11:37:28;;;;;;;;;;;;;;;4.39;90.12;100626.47;5059874;28;19963;-73
2023/02/14 11:39:55;;;;;;;;;;;;;;;4.24;91.11;100620.16;5060369;28;19928;-71
2023/02/14 11:42:37;;;;;;;;;;;;;;;4.39;90.45;100618.53;5063067;28;19920;-72
2023/02/14 11:45:04;;;;;;;;;;;;;;;4.81;88.95;100610.38;5058706;28;19925;-73
2023/02/14 11:47:31;;;;;;;;;;;;;;;4.37;89.29;100610.75;5065802;28;19922;-73
2023/02/14 11:50:25;;;;;;;;;;;;;;;4.12;90.30;100606.47;5060347;28;19978;-72
2023/02/14 11:52:52;;;;;;;;;;;;;;;4.51;89.46;100599.53;5057885;28;19917;-73
2023/02/14 11:55:29;;;;;;;;;;;;;;;4.00;91.37;100591.91;5068200;28;19927;-73
2023/02/14 11:57:55;;;;;;;;;;;;;;;4.02;91.50;100597.84;5063570;28;20015;-72
2023/02/14 12:00:22;;;;;;;;;;;;;;;4.53;90.39;100591.41;5064532;28;19920;-72
2023/02/14 12:02:48;;;;;;;;;;;;;;;4.79;88.45;100585.91;5069202;28;19973;-73
2023/02/14 12:05:19;;;;;;;;;;;;;;;4.56;89.67;100581.31;5065254;28;20439;-73
2023/02/14 12:07:46;;;;;;;;;;;;;;;4.99;88.24;100580.09;5066328;28;19990;-72
2023/02/14 12:10:17;;;;;;;;;;;;;;;5.03;87.45;100577.91;5068055;28;19921;-72
2023/02/14 12:12:48;;;;;;;;;;;;;;;4.51;88.87;100575.72;5061394;28;19920;-73
2023/02/14 12:15:28;;;;;;;;;;;;;;;4.81;88.95;100578.63;5064688;28;19920;-73
2023/02/14 12:18:13;;;;;;;;;;;;;;;4.68;89.13;100579.16;5059892;28;19924;-72
2023/02/14 12:20:44;;;;;;;;;;;;;;;4.74;88.83;100577.69;5068950;28;19916;-72
2023/02/14 12:23:17;;;;;;;;;;;;;;;5.13;89.41;100562.69;5069684;28;20397;-72
2023/02/14 12:26:05;;;;;;;;;;;;;;;4.90;89.62;100565.22;5068677;28;19916;-72
2023/02/14 12:28:37;;;;;;;;;;;;;;;5.10;88.17;100558.56;5065939;28;19924;-72
2023/02/14 12:31:07;;;;;;;;;;;;;;;4.79;87.90;100565.59;5068947;28;20341;-73
2023/02/14 12:33:32;;;;;;;;;;;;;;;4.83;88.80;100566.91;5060951;28;20011;-72
2023/02/14 12:36:11;;;;;;;;;;;;;;;5.38;87.43;100553.63;5069030;28;20011;-73
2023/02/14 12:38:44;;;;;;;;;;;;;;;5.07;87.21;100550.94;5064567;28;20106;-72
2023/02/14 12:41:23;;;;;;;;;;;;;;;5.45;86.16;100545.81;5059590;28;19962;-72
2023/02/14 12:43:52;;;;;;;;;;;;;;;5.67;88.20;100543.22;5062246;28;19916;-72
2023/02/14 12:46:36;;;;;;;;;;;;;;;6.28;85.51;100544.09;5056551;28;19931;-72
2023/02/14 12:49:21;;;;;;;;;;;;;;;6.05;85.72;100539.63;5064199;28;20350;-73
2023/02/14 12:51:55;;;;;;;;;;;;;;;6.32;87.08;100538.25;5065473;28;19920;-72
2023/02/14 12:54:31;;;;;;;;;;;;;;;6.43;84.78;100531.69;5071069;28;19920;-72
2023/02/14 12:56:56;;;;;;;;;;;;;;;6.66;85.17;100524.50;5071687;28;19928;-73
2023/02/14 12:59:29;;;;;;;;;;;;;;;6.76;83.77;100515.28;5064334;28;19982;-73
2023/02/14 13:02:13;;;;;;;;;;;;;;;6.77;84.58;100513.44;5065635;28;19970;-73
2023/02/14 13:04:46;;;;;;;;;;;;;;;6.62;84.14;100515.25;5064679;28;20020;-73